Time;durP1;ratioP1;P1;durP2;ratioP2;P2;SDS_P1;SDS_P2;PMS_P1;PMS_P2;Temp;Humidity;BMP_temperature;BMP_pressure;BME280_temperature;BME280_humidity;BME280_pressure;Samples;Min_cycle;Max_cycle;Signal;HPM_P1;HPM_P2
2022/02/07 00:01:55;;;;;;;15.30;14.50;;;4.40;99.90;;;;;;4809194;29;20234;-79
2022/02/07 00:04:28;;;;;;;15.80;14.77;;;4.40;99.90;;;;;;4807199;29;20283;-79
2022/02/07 00:06:55;;;;;;;15.80;15.00;;;4.40;99.90;;;;;;4805638;29;20204;-79
2022/02/07 00:09:22;;;;;;;15.60;14.80;;;4.40;99.90;;;;;;4804370;29;20212;-80
2022/02/07 00:11:49;;;;;;;15.37;14.57;;;4.40;99.90;;;;;;4806896;29;20239;-80
2022/02/07 00:14:16;;;;;;;15.30;14.50;;;4.30;99.90;;;;;;4808933;29;20679;-80
2022/02/07 00:16:44;;;;;;;15.50;14.70;;;4.30;99.90;;;;;;4807002;29;20215;-80
2022/02/07 00:19:17;;;;;;;15.43;14.63;;;4.30;99.90;;;;;;4802175;29;20201;-79
2022/02/07 00:21:47;;;;;;;16.40;15.60;;;4.20;99.90;;;;;;4805214;29;20216;-79
2022/02/07 00:24:13;;;;;;;16.90;16.00;;;4.10;99.90;;;;;;4799466;29;20593;-80
2022/02/07 00:26:40;;;;;;;16.80;15.90;;;3.90;99.90;;;;;;4807374;29;20227;-79
2022/02/07 00:29:07;;;;;;;17.00;16.10;;;3.80;99.90;;;;;;4806180;29;20208;-79
2022/02/07 00:31:34;;;;;;;17.00;16.10;;;3.80;99.90;;;;;;4808613;29;20222;-79
2022/02/07 00:34:01;;;;;;;16.83;15.93;;;3.70;99.90;;;;;;4801305;29;20232;-79
2022/02/07 00:36:30;;;;;;;16.67;15.77;;;3.50;99.90;;;;;;4817306;29;20215;-79
2022/02/07 00:39:05;;;;;;;17.10;16.20;;;3.40;99.90;;;;;;4798938;29;20209;-79
2022/02/07 00:41:39;;;;;;;16.90;16.00;;;3.30;99.90;;;;;;4797665;29;20209;-79
2022/02/07 00:44:12;;;;;;;17.10;16.20;;;3.20;99.90;;;;;;4820247;24;20794;-77
2022/02/07 00:46:47;;;;;;;17.10;16.20;;;3.10;99.90;;;;;;4799679;29;20216;-77
2022/02/07 00:49:14;;;;;;;16.87;16.00;;;3.00;99.90;;;;;;4796026;29;20294;-76
2022/02/07 00:51:42;;;;;;;17.10;16.20;;;2.90;99.90;;;;;;4802840;29;20208;-77
2022/02/07 00:54:10;;;;;;;16.70;15.90;;;2.80;99.90;;;;;;4797724;29;20501;-76
2022/02/07 00:56:37;;;;;;;17.10;16.20;;;2.70;99.90;;;;;;4797664;29;20213;-77
2022/02/07 00:59:04;;;;;;;16.97;16.07;;;2.70;99.90;;;;;;4789936;29;20842;-77
2022/02/07 01:01:32;;;;;;;17.00;16.10;;;2.60;99.90;;;;;;4797873;29;20522;-76
2022/02/07 01:03:58;;;;;;;17.00;16.10;;;2.50;99.90;;;;;;4797879;29;20458;-77
2022/02/07 01:06:33;;;;;;;16.87;16.00;;;2.50;99.90;;;;;;4797227;29;20640;-77
2022/02/07 01:09:15;;;;;;;16.93;16.03;;;2.50;99.90;;;;;;4795227;29;20881;-77
2022/02/07 01:12:05;;;;;;;16.90;15.90;;;2.50;99.90;;;;;;4802120;29;20557;-76
2022/02/07 01:14:59;;;;;;;17.10;16.20;;;2.50;99.90;;;;;;4788231;29;20534;-77
2022/02/07 01:18:10;;;;;;;17.27;16.37;;;2.40;99.90;;;;;;4794085;29;20553;-76
2022/02/07 01:23:25;;;;;;;14.20;13.50;;;2.40;99.90;;;;;;4800873;29;20460;-76
2022/02/07 01:48:58;;;;;;;16.93;16.03;;;2.40;99.90;;;;;;4798880;29;20441;-76
2022/02/07 01:51:39;;;;;;;17.03;16.13;;;2.40;99.90;;;;;;4798530;29;20458;-77
2022/02/07 01:54:20;;;;;;;17.27;16.37;;;2.40;99.90;;;;;;4799658;29;20493;-76
2022/02/07 01:56:57;;;;;;;17.17;16.27;;;2.40;99.90;;;;;;4799656;29;20468;-76
2022/02/07 01:59:25;;;;;;;17.20;16.30;;;2.50;99.90;;;;;;4793789;29;20465;-77
2022/02/07 02:01:52;;;;;;;17.10;16.20;;;2.50;99.90;;;;;;4795643;29;20546;-76
2022/02/07 02:04:19;;;;;;;16.73;15.83;;;2.50;99.90;;;;;;4794347;29;20856;-77
2022/02/07 02:06:49;;;;;;;16.90;16.00;;;2.60;99.90;;;;;;4795197;29;20531;-77
2022/02/07 02:09:23;;;;;;;17.07;16.17;;;2.60;99.90;;;;;;4797787;29;20843;-77
2022/02/07 02:11:49;;;;;;;16.83;15.93;;;2.70;99.90;;;;;;4795229;29;20457;-77
2022/02/07 02:14:28;;;;;;;16.80;15.80;;;2.70;99.90;;;;;;4801148;29;20489;-76
2022/02/07 02:17:15;;;;;;;16.50;15.60;;;2.70;99.90;;;;;;4798143;29;21029;-77
2022/02/07 02:36:44;;;;;;;16.33;15.43;;;2.90;99.90;;;;;;5085669;28;20434;-76
2022/02/07 02:47:34;;;;;;;16.23;15.40;;;3.00;99.90;;;;;;5010972;28;20457;-78
2022/02/07 02:50:26;;;;;;;16.60;15.70;;;3.00;99.90;;;;;;5011505;28;20462;-78
2022/02/07 02:52:54;;;;;;;16.03;15.23;;;3.00;99.90;;;;;;5011568;28;20200;-79
2022/02/07 02:55:21;;;;;;;16.40;15.50;;;3.00;99.90;;;;;;5011299;28;20454;-79
2022/02/07 02:57:49;;;;;;;16.27;15.30;;;3.00;99.90;;;;;;5031261;28;20196;-78
2022/02/07 03:00:18;;;;;;;16.23;15.33;;;3.00;99.90;;;;;;5019089;28;20498;-79
2022/02/07 03:02:45;;;;;;;13.13;12.43;;;3.00;99.90;;;;;;5019556;28;20585;-78
2022/02/07 03:05:12;;;;;;;12.83;12.17;;;3.00;99.90;;;;;;5025809;28;20226;-78
2022/02/07 03:07:39;;;;;;;15.63;14.83;;;3.10;99.90;;;;;;5026299;28;20447;-78
2022/02/07 03:10:07;;;;;;;16.17;15.30;;;3.10;99.90;;;;;;5029979;28;20469;-78
2022/02/07 03:12:43;;;;;;;16.33;15.43;;;3.10;99.90;;;;;;5028151;28;20199;-78
2022/02/07 03:17:55;;;;;;;16.33;15.20;;;3.10;99.90;;;;;;5027031;28;20196;-78
2022/02/07 03:20:22;;;;;;;16.13;15.20;;;3.10;99.90;;;;;;5046207;28;20465;-78
2022/02/07 03:22:49;;;;;;;16.30;15.40;;;3.10;99.90;;;;;;5028859;28;20209;-78
2022/02/07 03:25:16;;;;;;;15.80;15.00;;;3.10;99.90;;;;;;5029099;28;20462;-79
2022/02/07 03:27:48;;;;;;;16.23;15.33;;;3.00;99.90;;;;;;5030245;28;20290;-78
2022/02/07 03:30:27;;;;;;;17.00;16.00;;;3.00;99.90;;;;;;5029804;28;20223;-79
2022/02/07 03:32:54;;;;;;;16.30;15.50;;;2.90;99.90;;;;;;5030169;28;20448;-80
2022/02/07 03:35:21;;;;;;;16.60;15.60;;;2.90;99.90;;;;;;5021795;28;20195;-79
2022/02/07 03:37:52;;;;;;;16.60;15.60;;;2.80;99.90;;;;;;5013475;28;20447;-78
2022/02/07 03:40:20;;;;;;;16.90;15.83;;;2.70;99.90;;;;;;5012654;28;20482;-82
2022/02/07 03:42:50;;;;;;;17.03;15.97;;;2.70;99.90;;;;;;5021644;28;20488;-78
2022/02/07 03:45:17;;;;;;;18.60;17.30;;;2.70;99.90;;;;;;5032837;28;20466;-79
2022/02/07 03:47:50;;;;;;;17.33;16.27;;;2.70;99.90;;;;;;5017017;28;20450;-79
2022/02/07 03:50:22;;;;;;;16.50;15.60;;;2.60;99.90;;;;;;5016637;28;20465;-78
2022/02/07 03:52:53;;;;;;;16.90;15.90;;;2.60;99.90;;;;;;5019401;28;20457;-75
2022/02/07 03:55:25;;;;;;;14.40;13.60;;;2.60;99.90;;;;;;5017769;28;20450;-77
2022/02/07 03:57:56;;;;;;;13.50;12.80;;;2.60;99.90;;;;;;5016170;28;20519;-79
2022/02/07 04:00:24;;;;;;;14.03;13.23;;;2.60;99.90;;;;;;5016069;28;20470;-77
2022/02/07 04:03:08;;;;;;;14.63;13.53;;;2.60;99.90;;;;;;5016115;28;20459;-77
2022/02/07 04:05:49;;;;;;;14.00;13.27;;;2.70;99.90;;;;;;5011597;28;20477;-78
2022/02/07 04:08:20;;;;;;;13.57;12.77;;;2.70;99.90;;;;;;5011635;28;20536;-79
2022/02/07 04:10:59;;;;;;;13.80;12.90;;;2.80;99.90;;;;;;5012274;28;20472;-77
2022/02/07 04:13:30;;;;;;;13.63;12.87;;;2.90;99.90;;;;;;5012711;28;20449;-78
2022/02/07 04:15:58;;;;;;;13.70;12.90;;;2.90;99.90;;;;;;5004509;28;20193;-77
2022/02/07 04:18:31;;;;;;;15.33;14.43;;;2.90;99.90;;;;;;5033007;28;20434;-78
2022/02/07 04:20:58;;;;;;;14.53;13.70;;;2.60;99.90;;;;;;5007060;28;20904;-79
2022/02/07 04:23:25;;;;;;;14.80;14.00;;;2.40;99.90;;;;;;5013792;28;20455;-77
2022/02/07 04:26:11;;;;;;;14.90;14.10;;;2.20;99.90;;;;;;5031994;28;20444;-78
2022/02/07 04:28:38;;;;;;;14.90;14.00;;;2.00;99.90;;;;;;5015525;28;20493;-77
2022/02/07 04:31:06;;;;;;;15.47;14.57;;;2.00;99.90;;;;;;5015648;28;20435;-78
2022/02/07 04:33:34;;;;;;;18.30;17.20;;;1.90;99.90;;;;;;5015598;28;20975;-78
2022/02/07 04:36:01;;;;;;;18.40;17.40;;;1.90;99.90;;;;;;5010476;28;20454;-80
2022/02/07 04:38:28;;;;;;;17.13;16.23;;;1.90;99.90;;;;;;5001916;28;20453;-79
2022/02/07 04:40:58;;;;;;;17.50;16.50;;;1.90;99.90;;;;;;5015480;28;20480;-78
2022/02/07 04:43:25;;;;;;;18.33;17.17;;;1.90;99.90;;;;;;5021965;28;20452;-79
2022/02/07 04:46:02;;;;;;;17.97;16.73;;;1.90;99.90;;;;;;5013622;28;20468;-80
2022/02/07 04:48:59;;;;;;;17.40;16.50;;;2.00;99.90;;;;;;5013284;28;20454;-78
2022/02/07 04:51:48;;;;;;;17.97;16.97;;;2.00;99.90;;;;;;5031578;28;20452;-80
2022/02/07 04:54:33;;;;;;;16.60;15.70;;;2.00;99.90;;;;;;5013237;28;20437;-79
2022/02/07 04:57:10;;;;;;;17.70;16.70;;;2.00;99.90;;;;;;5011641;28;20535;-79
2022/02/07 04:59:57;;;;;;;17.17;16.27;;;2.00;99.90;;;;;;5010399;28;20475;-78
2022/02/07 05:02:38;;;;;;;17.97;16.73;;;2.00;99.90;;;;;;5041287;28;20449;-78
2022/02/07 05:05:19;;;;;;;17.20;16.20;;;1.90;99.90;;;;;;5014935;28;20970;-78
2022/02/07 05:15:58;;;;;;;17.17;16.03;;;1.90;99.90;;;;;;5031219;28;20941;-79
2022/02/07 05:18:28;;;;;;;17.03;16.13;;;1.90;99.90;;;;;;5014637;28;20552;-79
2022/02/07 05:21:14;;;;;;;17.57;16.60;;;1.90;99.90;;;;;;5031511;28;21052;-79
2022/02/07 05:24:01;;;;;;;17.10;16.20;;;1.90;99.90;;;;;;4975257;28;20528;-79
2022/02/07 05:26:57;;;;;;;17.07;16.17;;;1.80;99.90;;;;;;5023855;28;21026;-79
2022/02/07 05:29:43;;;;;;;17.13;16.03;;;1.90;99.90;;;;;;5027141;28;20453;-78
2022/02/07 05:32:37;;;;;;;16.60;15.70;;;1.80;99.90;;;;;;5014508;28;20543;-78
2022/02/07 05:35:30;;;;;;;16.83;15.83;;;1.80;99.90;;;;;;5005471;28;20443;-79
2022/02/07 05:38:17;;;;;;;16.60;15.60;;;1.80;99.90;;;;;;5030260;28;20961;-78
2022/02/07 05:41:15;;;;;;;16.30;15.50;;;1.70;99.90;;;;;;4992311;28;20577;-79
2022/02/07 05:44:01;;;;;;;16.67;15.77;;;1.70;99.90;;;;;;5020852;28;20494;-78
2022/02/07 05:46:40;;;;;;;17.47;16.20;;;1.70;99.90;;;;;;5037946;28;20458;-80
2022/02/07 05:49:24;;;;;;;17.07;16.07;;;1.70;99.90;;;;;;5017015;28;20489;-78
2022/02/07 05:52:14;;;;;;;16.80;15.90;;;1.70;99.90;;;;;;5014170;28;20455;-78
2022/02/07 05:54:59;;;;;;;16.70;15.60;;;1.60;99.90;;;;;;5014315;28;20469;-78
2022/02/07 05:57:43;;;;;;;16.40;15.43;;;1.60;99.90;;;;;;5007950;28;20451;-77
2022/02/07 06:00:25;;;;;;;17.07;16.00;;;1.60;99.90;;;;;;5013486;28;20862;-77
2022/02/07 06:02:52;;;;;;;17.03;15.63;;;1.60;99.90;;;;;;5031540;28;20453;-78
2022/02/07 06:05:28;;;;;;;16.60;15.60;;;1.60;99.90;;;;;;5013956;28;20490;-79
2022/02/07 06:08:01;;;;;;;16.00;15.10;;;1.60;99.90;;;;;;5013641;28;20447;-78
2022/02/07 06:10:31;;;;;;;16.27;15.30;;;1.60;99.90;;;;;;5008664;28;20476;-80
2022/02/07 06:13:02;;;;;;;16.57;15.50;;;1.60;99.90;;;;;;5029462;28;20450;-78
2022/02/07 06:15:30;;;;;;;15.93;15.00;;;1.60;99.90;;;;;;5014617;28;20450;-76
2022/02/07 06:17:59;;;;;;;15.87;14.87;;;1.60;99.90;;;;;;5005400;28;20458;-77
2022/02/07 06:20:30;;;;;;;15.67;14.87;;;1.70;99.90;;;;;;5013710;28;20469;-77
2022/02/07 06:22:57;;;;;;;17.30;16.10;;;1.70;99.90;;;;;;5013573;28;20440;-78
2022/02/07 06:25:24;;;;;;;16.17;15.37;;;1.70;99.90;;;;;;5013837;28;20830;-77
2022/02/07 06:27:52;;;;;;;16.63;15.63;;;1.70;99.90;;;;;;5013329;28;20557;-77
2022/02/07 06:30:26;;;;;;;16.33;15.37;;;1.70;99.90;;;;;;5013691;28;20472;-77
2022/02/07 06:32:54;;;;;;;16.20;15.30;;;1.70;99.90;;;;;;5013543;28;20452;-77
2022/02/07 06:35:21;;;;;;;16.60;15.57;;;1.70;99.90;;;;;;5013644;28;20498;-77
2022/02/07 06:37:51;;;;;;;17.20;16.00;;;1.80;99.90;;;;;;5013559;28;20818;-76
2022/02/07 06:40:20;;;;;;;16.97;15.83;;;1.80;99.90;;;;;;5013181;28;20480;-77
2022/02/07 06:42:48;;;;;;;16.60;15.70;;;1.90;99.90;;;;;;5013644;28;20884;-78
2022/02/07 06:45:16;;;;;;;16.57;15.47;;;2.00;99.90;;;;;;5031176;28;20559;-78
2022/02/07 06:47:43;;;;;;;17.33;16.13;;;2.00;99.90;;;;;;5013742;28;20452;-78
2022/02/07 06:50:10;;;;;;;17.47;16.27;;;2.10;99.90;;;;;;5016006;28;20478;-78
2022/02/07 06:52:38;;;;;;;16.70;15.73;;;2.10;99.90;;;;;;5044384;28;20515;-78
2022/02/07 06:55:08;;;;;;;16.83;15.80;;;2.20;99.90;;;;;;5020588;28;20449;-78
2022/02/07 06:57:36;;;;;;;16.40;15.40;;;2.20;99.90;;;;;;5022503;28;20489;-78
2022/02/07 07:00:05;;;;;;;16.40;15.50;;;2.30;99.90;;;;;;5033844;28;21020;-78
2022/02/07 07:02:36;;;;;;;17.57;16.50;;;2.30;99.90;;;;;;5022160;28;20801;-77
2022/02/07 07:05:09;;;;;;;16.43;15.53;;;2.30;99.90;;;;;;5026380;28;20555;-78
2022/02/07 07:07:38;;;;;;;16.20;15.20;;;2.30;99.90;;;;;;5022571;28;20549;-78
2022/02/07 07:10:07;;;;;;;15.80;14.90;;;2.30;99.90;;;;;;5019726;28;20470;-78
2022/02/07 07:12:35;;;;;;;16.60;15.57;;;2.30;99.90;;;;;;5029196;28;20494;-79
2022/02/07 07:15:09;;;;;;;16.50;15.50;;;2.30;99.90;;;;;;5012535;28;20542;-80
2022/02/07 07:17:38;;;;;;;16.20;15.20;;;2.30;99.90;;;;;;5015838;28;20447;-80
2022/02/07 07:20:06;;;;;;;16.40;15.40;;;2.30;99.90;;;;;;5035176;28;20447;-81
2022/02/07 07:22:36;;;;;;;16.03;15.00;;;2.30;99.90;;;;;;5012651;28;20815;-81
2022/02/07 07:25:14;;;;;;;16.50;15.50;;;2.30;99.90;;;;;;5012466;28;20522;-81
2022/02/07 07:27:56;;;;;;;16.27;15.27;;;2.30;99.90;;;;;;5012670;28;20541;-81
2022/02/07 07:30:26;;;;;;;17.03;15.83;;;2.20;99.90;;;;;;5014385;28;20559;-79
2022/02/07 07:33:01;;;;;;;16.37;15.20;;;2.30;99.90;;;;;;5022927;28;20770;-78
2022/02/07 07:35:28;;;;;;;16.47;15.30;;;2.40;99.90;;;;;;5023343;28;20444;-79
2022/02/07 07:37:55;;;;;;;17.03;15.77;;;2.40;99.90;;;;;;5016434;28;20478;-79
2022/02/07 07:40:22;;;;;;;16.80;15.70;;;2.50;99.90;;;;;;5008921;28;20475;-78
2022/02/07 07:42:53;;;;;;;17.23;16.23;;;2.50;99.90;;;;;;5010026;28;20459;-78
2022/02/07 07:45:59;;;;;;;16.57;15.43;;;2.60;99.90;;;;;;4978883;28;20478;-79
2022/02/07 07:48:48;;;;;;;17.53;16.00;;;2.60;99.90;;;;;;5028875;28;20550;-78
2022/02/07 07:51:41;;;;;;;17.47;16.30;;;2.70;99.90;;;;;;5028636;28;20438;-77
2022/02/07 07:54:28;;;;;;;17.30;15.93;;;2.70;99.90;;;;;;5012751;28;20451;-78
2022/02/07 08:02:47;;;;;;;16.70;15.40;;;2.90;99.90;;;;;;5031877;28;20477;-78
2022/02/07 08:05:33;;;;;;;16.87;15.77;;;2.80;99.90;;;;;;5016185;28;20472;-78
2022/02/07 08:08:09;;;;;;;15.77;14.87;;;2.80;99.90;;;;;;5015521;28;20662;-77
2022/02/07 08:10:49;;;;;;;16.70;15.30;;;2.90;99.90;;;;;;5004935;28;20486;-77
2022/02/07 08:13:18;;;;;;;16.13;15.13;;;2.80;99.90;;;;;;5014549;28;20484;-77
2022/02/07 08:15:52;;;;;;;15.73;14.73;;;2.80;99.90;;;;;;5013773;28;20530;-79
2022/02/07 08:18:18;;;;;;;16.43;15.30;;;2.80;99.90;;;;;;5014929;28;20464;-78
2022/02/07 08:20:46;;;;;;;16.30;14.90;;;2.80;99.90;;;;;;5015297;28;20539;-78
2022/02/07 08:23:13;;;;;;;16.00;15.10;;;2.80;99.90;;;;;;5013453;28;20749;-78
2022/02/07 08:25:40;;;;;;;16.23;15.13;;;2.80;99.90;;;;;;5030479;28;20865;-78
2022/02/07 08:28:09;;;;;;;16.70;15.27;;;2.90;99.90;;;;;;5032645;28;20487;-78
2022/02/07 08:30:36;;;;;;;16.43;15.37;;;2.90;99.90;;;;;;5014851;28;20511;-78
2022/02/07 08:33:03;;;;;;;16.87;15.57;;;3.10;99.90;;;;;;5014993;28;20505;-78
2022/02/07 08:35:30;;;;;;;16.53;15.17;;;3.20;99.90;;;;;;5027257;28;20520;-77
2022/02/07 08:37:59;;;;;;;16.20;15.17;;;3.20;99.90;;;;;;5032415;28;20196;-78
2022/02/07 08:40:27;;;;;;;16.73;15.63;;;3.30;99.90;;;;;;5054442;23;20482;-78
2022/02/07 08:42:54;;;;;;;16.10;14.80;;;3.30;99.90;;;;;;5035355;28;20529;-77
2022/02/07 08:45:21;;;;;;;16.87;15.43;;;3.30;99.90;;;;;;5018326;28;20466;-77
2022/02/07 08:47:48;;;;;;;16.03;15.03;;;3.20;99.90;;;;;;5015214;28;20447;-77
2022/02/07 08:50:15;;;;;;;16.57;15.17;;;3.20;99.90;;;;;;5032963;28;20474;-78
2022/02/07 08:52:46;;;;;;;17.17;15.90;;;3.30;99.90;;;;;;5033281;28;20262;-77
2022/02/07 08:55:22;;;;;;;16.80;15.70;;;3.30;99.90;;;;;;5035165;28;20443;-77
2022/02/07 08:57:54;;;;;;;16.83;15.60;;;3.40;99.90;;;;;;5018122;28;20246;-77
2022/02/07 09:00:34;;;;;;;16.00;14.90;;;3.50;99.90;;;;;;5032659;28;20298;-77
2022/02/07 09:03:31;;;;;;;16.87;15.77;;;3.60;99.90;;;;;;5033291;28;20493;-77
2022/02/07 09:06:13;;;;;;;16.63;15.43;;;3.70;99.90;;;;;;5035866;28;20704;-77
2022/02/07 09:09:06;;;;;;;16.30;15.10;;;3.80;99.90;;;;;;5033537;28;20203;-77
2022/02/07 09:11:35;;;;;;;16.43;15.40;;;3.80;99.90;;;;;;5034450;28;20247;-77
2022/02/07 09:14:09;;;;;;;16.20;15.03;;;3.80;99.90;;;;;;5017310;28;20199;-77
2022/02/07 09:16:37;;;;;;;16.37;15.30;;;3.80;99.90;;;;;;5034448;28;20274;-78
2022/02/07 09:19:04;;;;;;;15.97;14.93;;;3.80;99.90;;;;;;5034416;28;20210;-77
2022/02/07 09:21:31;;;;;;;16.23;15.23;;;3.80;99.90;;;;;;5034913;28;20660;-77
2022/02/07 09:23:59;;;;;;;16.93;15.60;;;3.80;99.90;;;;;;5016966;28;20196;-77
2022/02/07 09:26:26;;;;;;;16.60;15.50;;;3.90;99.90;;;;;;5031605;28;20274;-78
2022/02/07 09:28:55;;;;;;;16.20;15.07;;;3.90;99.90;;;;;;5034894;28;20247;-77
2022/02/07 09:31:22;;;;;;;15.30;14.40;;;3.90;99.90;;;;;;5016662;28;20228;-77
2022/02/07 09:33:50;;;;;;;15.43;14.43;;;4.00;99.90;;;;;;5033269;28;20208;-77
2022/02/07 09:36:17;;;;;;;15.47;14.20;;;4.00;99.90;;;;;;5035457;28;20199;-77
2022/02/07 09:38:45;;;;;;;15.03;13.93;;;4.10;99.90;;;;;;5034057;28;20207;-78
2022/02/07 09:41:12;;;;;;;14.23;13.20;;;4.10;99.90;;;;;;5016825;28;20649;-77
2022/02/07 09:43:45;;;;;;;14.80;13.80;;;4.20;99.90;;;;;;5034870;28;20620;-77
2022/02/07 09:46:21;;;;;;;14.80;13.70;;;4.20;99.90;;;;;;5033999;28;20216;-77
2022/02/07 09:48:51;;;;;;;13.63;12.77;;;4.10;99.90;;;;;;5033443;28;20257;-77
2022/02/07 09:51:19;;;;;;;13.10;12.20;;;4.20;99.90;;;;;;5032510;28;20254;-77
2022/02/07 09:53:46;;;;;;;12.97;12.17;;;4.20;99.90;;;;;;5034030;28;20310;-77
2022/02/07 09:56:13;;;;;;;13.53;12.33;;;4.20;99.90;;;;;;5031581;28;20192;-79
2022/02/07 09:58:41;;;;;;;14.00;12.70;;;4.20;99.90;;;;;;5011182;28;20204;-78
2022/02/07 10:01:14;;;;;;;13.70;12.60;;;4.20;99.90;;;;;;5030866;28;20215;-77
2022/02/07 10:03:51;;;;;;;13.70;12.60;;;4.20;99.90;;;;;;5026109;28;20195;-77
2022/02/07 10:06:32;;;;;;;13.70;12.70;;;4.20;99.90;;;;;;5027800;28;20286;-79
2022/02/07 10:09:15;;;;;;;13.50;12.30;;;4.20;99.90;;;;;;5015734;28;20208;-77
2022/02/07 10:11:58;;;;;;;13.13;12.23;;;4.30;99.90;;;;;;5033251;28;20198;-77
2022/02/07 10:14:30;;;;;;;13.57;12.50;;;4.40;99.90;;;;;;5029717;28;20589;-77
2022/02/07 10:17:17;;;;;;;13.03;12.20;;;4.40;99.90;;;;;;5022737;28;20196;-77
2022/02/07 10:19:58;;;;;;;13.80;12.90;;;4.50;99.90;;;;;;5030126;28;20215;-78
2022/02/07 10:23:06;;;;;;;13.77;12.50;;;4.50;99.90;;;;;;5021126;28;20664;-78
2022/02/07 10:40:21;;;;;;;13.03;12.10;;;4.60;99.90;;;;;;4937561;28;20322;-76
2022/02/07 10:43:08;;;;;;;12.97;12.17;;;4.80;99.90;;;;;;5021445;28;20579;-77
2022/02/07 10:45:36;;;;;;;13.20;12.10;;;4.80;99.90;;;;;;5031180;28;20207;-77
2022/02/07 10:48:07;;;;;;;12.67;11.77;;;4.90;99.90;;;;;;5033342;28;20207;-77
2022/02/07 10:50:34;;;;;;;6.67;5.83;;;5.00;99.90;;;;;;5035888;28;20778;-77
2022/02/07 10:53:02;;;;;;;4.33;3.80;;;5.10;99.90;;;;;;5013876;28;20684;-77
2022/02/07 10:55:31;;;;;;;13.40;12.40;;;5.10;99.90;;;;;;5024862;28;20205;-77
2022/02/07 10:57:59;;;;;;;10.97;8.63;;;5.10;99.90;;;;;;5013522;28;20262;-77
2022/02/07 11:00:31;;;;;;;12.57;11.57;;;5.20;99.90;;;;;;5034642;28;20212;-76
2022/02/07 11:03:05;;;;;;;4.30;3.40;;;5.20;99.90;;;;;;5032890;28;20189;-77
2022/02/07 11:05:39;;;;;;;9.00;3.93;;;5.40;99.90;;;;;;5029080;28;20264;-77
2022/02/07 11:08:21;;;;;;;9.00;3.67;;;5.50;99.90;;;;;;5035106;28;20220;-78
2022/02/07 11:11:32;;;;;;;5.13;3.23;;;5.60;99.90;;;;;;5033915;28;20733;-77
2022/02/07 11:14:14;;;;;;;8.60;5.10;;;5.60;99.90;;;;;;5034616;28;20224;-77
2022/02/07 11:16:57;;;;;;;5.47;3.23;;;5.60;99.90;;;;;;5017475;28;20202;-77
2022/02/07 11:19:45;;;;;;;7.83;7.10;;;5.70;99.90;;;;;;5024169;28;20256;-77
2022/02/07 11:22:30;;;;;;;7.93;6.20;;;5.60;99.90;;;;;;5035926;28;20197;-77
2022/02/07 11:25:12;;;;;;;11.83;11.00;;;5.60;99.90;;;;;;5015692;28;20210;-77
2022/02/07 11:27:42;;;;;;;12.80;11.80;;;5.50;99.90;;;;;;5006732;28;20217;-77
2022/02/07 11:30:12;;;;;;;12.53;10.83;;;5.40;99.90;;;;;;5033354;28;20710;-77
2022/02/07 11:32:53;;;;;;;11.93;10.73;;;5.50;99.90;;;;;;5034112;28;20197;-77
2022/02/07 11:35:22;;;;;;;11.40;10.60;;;5.50;99.90;;;;;;5034261;28;20223;-77
2022/02/07 11:38:10;;;;;;;12.00;10.93;;;5.50;99.90;;;;;;5016102;28;20288;-77
2022/02/07 11:40:40;;;;;;;11.13;10.37;;;5.40;99.90;;;;;;5034902;28;20304;-77
2022/02/07 11:43:13;;;;;;;11.70;10.70;;;5.40;99.90;;;;;;5033891;28;20665;-77
2022/02/07 11:45:52;;;;;;;11.33;10.00;;;5.40;99.90;;;;;;5016344;28;20212;-77
2022/02/07 11:48:28;;;;;;;11.83;10.77;;;5.30;99.90;;;;;;5033158;28;20198;-77
2022/02/07 11:50:57;;;;;;;10.80;9.90;;;5.10;99.90;;;;;;5019313;28;20745;-77
2022/02/07 11:53:32;;;;;;;11.20;10.30;;;5.10;99.90;;;;;;5012772;28;20211;-77
2022/02/07 11:56:08;;;;;;;11.53;10.37;;;5.10;99.90;;;;;;5009919;28;20203;-77
2022/02/07 11:58:52;;;;;;;11.67;10.67;;;5.10;99.90;;;;;;5015419;28;20208;-77
2022/02/07 12:01:25;;;;;;;10.63;9.77;;;5.10;99.90;;;;;;5028333;28;20213;-77
2022/02/07 12:03:54;;;;;;;11.70;10.60;;;5.10;99.90;;;;;;5037527;28;20210;-77
2022/02/07 12:06:24;;;;;;;11.23;10.30;;;5.10;99.90;;;;;;5026584;28;20300;-77
2022/02/07 12:08:53;;;;;;;11.90;10.93;;;5.00;99.90;;;;;;5028647;28;20201;-77
2022/02/07 12:11:41;;;;;;;11.77;10.77;;;5.00;99.90;;;;;;5029451;28;20216;-78
2022/02/07 12:14:29;;;;;;;11.60;10.67;;;5.00;99.90;;;;;;5015037;28;20220;-77
2022/02/07 12:16:56;;;;;;;11.30;10.40;;;4.90;99.90;;;;;;5028436;28;20227;-77
2022/02/07 12:19:35;;;;;;;10.87;10.07;;;4.80;99.90;;;;;;5028662;28;20229;-77
2022/02/07 12:22:13;;;;;;;11.20;10.30;;;4.80;99.90;;;;;;5032952;28;20681;-78
2022/02/07 12:24:54;;;;;;;10.70;9.90;;;4.90;99.90;;;;;;5014276;28;20196;-77
2022/02/07 12:27:22;;;;;;;10.57;9.87;;;4.80;99.90;;;;;;5026258;28;20216;-76
2022/02/07 12:30:05;;;;;;;11.50;10.80;;;4.80;99.90;;;;;;5031079;28;20236;-77
2022/02/07 12:32:33;;;;;;;11.30;10.00;;;4.90;99.90;;;;;;5010882;28;20230;-77
2022/02/07 12:35:00;;;;;;;11.60;10.50;;;4.90;99.90;;;;;;5033038;28;20200;-76
2022/02/07 12:37:27;;;;;;;10.97;9.97;;;4.90;99.90;;;;;;5033047;28;20202;-77
2022/02/07 12:39:56;;;;;;;10.67;9.90;;;4.90;99.90;;;;;;5022809;28;20228;-77
2022/02/07 12:42:24;;;;;;;10.97;10.10;;;4.90;99.90;;;;;;5032396;28;20224;-77
2022/02/07 12:44:54;;;;;;;10.60;9.70;;;5.00;99.90;;;;;;5030368;28;20196;-77
2022/02/07 12:47:21;;;;;;;10.70;9.80;;;5.00;99.90;;;;;;5022236;28;20231;-77
2022/02/07 12:49:51;;;;;;;10.27;9.50;;;5.10;99.90;;;;;;5017351;28;20216;-77
2022/02/07 12:52:18;;;;;;;11.07;9.90;;;5.10;99.90;;;;;;5024202;28;20254;-77
2022/02/07 12:54:45;;;;;;;10.70;9.83;;;5.10;99.90;;;;;;5033386;28;20243;-77
2022/02/07 12:57:13;;;;;;;10.93;10.10;;;5.30;99.90;;;;;;5031820;28;20251;-77
2022/02/07 12:59:52;;;;;;;11.30;10.30;;;5.30;99.90;;;;;;5032438;28;20217;-77
2022/02/07 13:02:27;;;;;;;10.37;9.53;;;5.40;99.90;;;;;;5021730;28;20205;-76
2022/02/07 13:04:54;;;;;;;11.77;10.87;;;5.40;99.90;;;;;;5024570;28;20204;-77
2022/02/07 13:07:24;;;;;;;11.23;10.33;;;5.50;99.90;;;;;;5029853;28;20738;-76
2022/02/07 13:09:53;;;;;;;11.80;10.87;;;5.60;99.90;;;;;;5030501;28;20233;-77
2022/02/07 13:12:36;;;;;;;11.27;10.30;;;5.60;99.90;;;;;;5033905;28;20752;-77
2022/02/07 13:15:13;;;;;;;11.60;10.60;;;5.60;99.90;;;;;;5012628;28;20202;-76
2022/02/07 13:17:40;;;;;;;11.03;10.13;;;5.60;99.90;;;;;;5032203;28;20620;-77
2022/02/07 13:20:10;;;;;;;12.43;11.20;;;5.50;99.90;;;;;;5028628;28;20296;-76
2022/02/07 13:22:37;;;;;;;11.43;10.43;;;5.40;99.90;;;;;;5014843;28;20597;-76
2022/02/07 13:25:04;;;;;;;12.07;10.87;;;5.40;99.90;;;;;;5017881;28;20239;-77
2022/02/07 13:27:32;;;;;;;10.90;10.00;;;5.40;99.90;;;;;;5031976;28;20500;-77
2022/02/07 13:29:59;;;;;;;11.40;10.47;;;5.50;99.90;;;;;;5010783;28;20232;-77
2022/02/07 13:32:30;;;;;;;12.83;11.20;;;5.50;99.90;;;;;;5019097;28;20209;-77
2022/02/07 13:35:05;;;;;;;10.87;10.17;;;5.60;99.90;;;;;;5031348;28;20216;-77
2022/02/07 13:37:36;;;;;;;10.67;9.90;;;5.50;99.90;;;;;;5029803;28;20629;-77
2022/02/07 13:40:06;;;;;;;12.03;11.03;;;5.50;99.90;;;;;;5030977;28;20230;-77
2022/02/07 13:42:37;;;;;;;10.97;10.07;;;5.50;99.90;;;;;;5031987;28;20197;-77
2022/02/07 13:45:08;;;;;;;10.33;9.53;;;5.60;99.90;;;;;;5030657;28;20206;-77
2022/02/07 13:47:38;;;;;;;11.13;10.03;;;5.60;99.90;;;;;;5018006;28;20596;-77
2022/02/07 13:50:08;;;;;;;11.07;10.17;;;5.70;99.90;;;;;;5030386;28;20225;-77
2022/02/07 13:52:37;;;;;;;11.13;10.10;;;5.70;99.90;;;;;;5029124;28;20252;-77
2022/02/07 13:55:18;;;;;;;11.13;10.27;;;5.60;99.90;;;;;;5030507;28;20635;-76
2022/02/07 13:57:58;;;;;;;11.10;10.20;;;5.60;99.90;;;;;;5026483;28;20688;-77
2022/02/07 14:00:27;;;;;;;11.00;10.13;;;5.60;99.90;;;;;;5013204;28;20216;-77
2022/02/07 14:03:07;;;;;;;10.20;9.33;;;5.60;99.90;;;;;;5014100;28;20211;-77
2022/02/07 14:05:36;;;;;;;11.30;10.30;;;5.70;99.90;;;;;;5028047;28;20205;-77
2022/02/07 14:08:04;;;;;;;10.70;9.97;;;5.70;99.90;;;;;;5012548;28;20302;-77
2022/02/07 14:10:35;;;;;;;10.63;9.83;;;5.70;99.90;;;;;;5030023;28;20708;-76
2022/02/07 14:13:02;;;;;;;10.30;9.50;;;5.60;99.90;;;;;;5030183;28;20198;-77
2022/02/07 14:15:29;;;;;;;10.50;9.60;;;5.60;99.90;;;;;;5023838;28;20205;-77
2022/02/07 14:17:56;;;;;;;10.27;9.57;;;5.60;99.90;;;;;;5011688;28;20207;-77
2022/02/07 14:20:30;;;;;;;10.50;9.60;;;5.60;99.90;;;;;;5027458;28;20239;-77
2022/02/07 14:22:57;;;;;;;11.43;10.37;;;5.60;99.90;;;;;;5006283;28;20224;-77
2022/02/07 14:25:28;;;;;;;10.53;9.63;;;5.60;99.90;;;;;;5021724;28;20408;-77
2022/02/07 14:27:55;;;;;;;10.47;9.67;;;5.60;99.90;;;;;;5028142;28;20235;-77
2022/02/07 14:30:23;;;;;;;10.50;9.70;;;5.60;99.90;;;;;;5012141;28;20236;-77
2022/02/07 14:32:50;;;;;;;10.20;9.33;;;5.60;99.90;;;;;;5029961;28;20203;-77